Time;durP1;ratioP1;P1;durP2;ratioP2;P2;SDS_P1;SDS_P2;PMS_P1;PMS_P2;Temp;Humidity;BMP_temperature;BMP_pressure;BME280_temperature;BME280_humidity;BME280_pressure;Samples;Min_cycle;Max_cycle;Signal;HPM_P1;HPM_P2
2022/09/15 00:00:05;;;;;;;459.05;42.38;;;17.60;74.80;;;;;;4977055;28;20046;-52
2022/09/15 00:02:33;;;;;;;106.82;31.17;;;17.70;75.10;;;;;;4981518;28;20481;-56
2022/09/15 00:05:00;;;;;;;426.60;38.88;;;17.70;75.20;;;;;;4981047;28;20047;-53
2022/09/15 00:07:28;;;;;;;287.98;37.47;;;17.70;75.30;;;;;;4976273;28;20513;-52
2022/09/15 00:09:55;;;;;;;523.08;45.00;;;17.70;75.10;;;;;;4979744;28;20900;-53
2022/09/15 00:12:22;;;;;;;395.27;44.70;;;17.70;75.00;;;;;;4978546;28;20057;-54
2022/09/15 00:14:49;;;;;;;71.00;38.80;;;17.60;74.90;;;;;;4980883;28;20055;-53
2022/09/15 00:17:17;;;;;;;72.75;40.25;;;17.60;74.90;;;;;;4980201;28;20054;-54
2022/09/15 00:19:45;;;;;;;64.32;36.35;;;17.60;75.00;;;;;;4978283;28;20066;-55
2022/09/15 00:22:13;;;;;;;80.78;42.17;;;17.60;75.00;;;;;;4974800;28;20427;-53
2022/09/15 00:24:40;;;;;;;79.13;41.03;;;17.60;74.90;;;;;;4980080;28;20422;-53
2022/09/15 00:27:08;;;;;;;70.75;38.50;;;17.60;74.80;;;;;;4976699;28;20406;-53
2022/09/15 00:29:35;;;;;;;67.82;38.03;;;17.50;74.60;;;;;;4979516;28;20058;-53
2022/09/15 00:32:03;;;;;;;66.57;37.47;;;17.60;74.60;;;;;;4979207;28;20077;-54
2022/09/15 00:34:30;;;;;;;71.30;37.95;;;17.50;74.40;;;;;;4979330;28;20057;-53
2022/09/15 00:36:59;;;;;;;72.40;37.45;;;17.50;74.50;;;;;;4977967;28;20413;-54
2022/09/15 00:39:26;;;;;;;70.90;38.20;;;17.50;74.50;;;;;;4982730;28;20055;-54
2022/09/15 00:41:53;;;;;;;72.18;37.55;;;17.40;74.50;;;;;;4969805;28;20046;-53
2022/09/15 00:44:52;;;;;;;66.60;37.55;;;17.40;74.50;;;;;;4979632;28;20433;-52
2022/09/15 00:47:22;;;;;;;75.82;39.50;;;17.40;74.60;;;;;;4979742;28;20073;-54
2022/09/15 00:49:53;;;;;;;67.95;36.75;;;17.40;74.70;;;;;;4981310;28;20494;-52
2022/09/15 00:52:27;;;;;;;64.80;36.20;;;17.30;74.80;;;;;;4976870;28;20467;-51
2022/09/15 00:54:59;;;;;;;64.28;36.13;;;17.30;74.90;;;;;;4982898;28;20055;-54
2022/09/15 00:57:30;;;;;;;56.83;34.10;;;17.30;75.00;;;;;;4975435;28;20063;-53
2022/09/15 01:00:01;;;;;;;68.28;34.83;;;17.30;75.00;;;;;;4975218;28;20059;-49
2022/09/15 01:02:31;;;;;;;62.95;34.67;;;17.30;75.00;;;;;;4976949;28;20046;-47
2022/09/15 01:05:00;;;;;;;62.72;34.60;;;17.20;74.90;;;;;;4980395;28;20871;-49
2022/09/15 01:07:33;;;;;;;59.80;32.85;;;17.20;75.00;;;;;;4982214;28;20050;-49
2022/09/15 01:10:05;;;;;;;58.30;32.75;;;17.20;75.00;;;;;;4978391;28;20418;-49
2022/09/15 01:16:02;;;;;;;55.45;30.70;;;17.30;75.10;;;;;;4981483;28;20044;-48
2022/09/15 01:18:37;;;;;;;57.50;30.88;;;17.30;74.90;;;;;;4979890;28;20050;-50
2022/09/15 01:21:16;;;;;;;56.15;31.83;;;17.30;74.90;;;;;;4974009;28;20399;-49
2022/09/15 01:24:11;;;;;;;50.53;28.55;;;17.30;74.60;;;;;;4978271;28;20050;-48
2022/09/15 01:27:04;;;;;;;52.25;30.95;;;17.30;74.50;;;;;;4978432;28;20398;-51
2022/09/15 01:30:06;;;;;;;57.10;32.08;;;17.30;74.40;;;;;;4975188;28;20050;-48
2022/09/15 01:33:03;;;;;;;64.32;33.92;;;17.30;74.30;;;;;;4976808;28;20049;-48
2022/09/15 01:35:42;;;;;;;63.40;31.85;;;17.20;74.10;;;;;;4977311;28;20379;-52
2022/09/15 01:38:16;;;;;;;58.67;32.78;;;17.20;74.10;;;;;;4965716;28;20069;-48
2022/09/15 01:40:49;;;;;;;57.55;31.40;;;17.20;74.10;;;;;;4974891;28;20065;-49
2022/09/15 01:43:19;;;;;;;57.28;31.83;;;17.20;74.10;;;;;;4975398;28;20050;-50
2022/09/15 01:45:49;;;;;;;60.95;32.75;;;17.20;74.20;;;;;;4977227;28;20465;-47
2022/09/15 01:48:20;;;;;;;61.20;31.40;;;17.20;74.20;;;;;;4978952;28;20065;-48
2022/09/15 01:50:51;;;;;;;55.55;30.50;;;17.20;74.20;;;;;;4972521;28;20054;-49
2022/09/15 01:53:20;;;;;;;49.25;26.73;;;17.20;74.20;;;;;;4982164;28;20054;-47
2022/09/15 01:55:53;;;;;;;57.85;30.45;;;17.20;74.40;;;;;;4978687;28;20124;-48
2022/09/15 01:58:22;;;;;;;56.50;30.40;;;17.20;74.00;;;;;;4976579;28;20065;-46
2022/09/15 02:00:56;;;;;;;56.92;31.30;;;17.30;73.80;;;;;;4970968;28;20054;-46
2022/09/15 02:03:25;;;;;;;;;;;17.20;73.40;;;;;;4980010;28;20387;-48
2022/09/15 02:06:01;;;;;;;59.65;31.05;;;17.30;73.40;;;;;;4976698;28;19922;-50
2022/09/15 02:08:36;;;;;;;59.63;32.20;;;17.30;72.80;;;;;;4979956;28;20050;-49
2022/09/15 02:11:12;;;;;;;59.40;31.33;;;17.20;72.60;;;;;;4976248;28;20058;-50
2022/09/15 02:13:48;;;;;;;64.10;31.60;;;17.20;72.80;;;;;;4982698;28;20055;-48
2022/09/15 02:16:20;;;;;;;60.17;30.75;;;17.20;72.90;;;;;;4979979;28;20058;-51
2022/09/15 02:19:02;;;;;;;61.53;31.27;;;17.20;73.00;;;;;;4981209;28;20065;-50
2022/09/15 02:21:35;;;;;;;65.85;33.28;;;17.10;73.00;;;;;;4973686;28;20053;-54
2022/09/15 02:24:09;;;;;;;69.40;33.78;;;17.10;73.00;;;;;;4962250;28;20089;-52
2022/09/15 02:26:40;;;;;;;60.58;30.90;;;17.10;73.00;;;;;;4977892;28;20065;-53
2022/09/15 02:29:12;;;;;;;64.85;31.50;;;17.00;72.90;;;;;;4981755;28;20066;-53
2022/09/15 02:31:43;;;;;;;71.68;32.35;;;17.00;72.90;;;;;;4972086;28;20054;-52
2022/09/15 02:34:13;;;;;;;61.38;31.23;;;16.90;72.90;;;;;;4978853;28;20050;-54
2022/09/15 02:36:42;;;;;;;69.22;34.80;;;16.90;73.10;;;;;;4980650;28;20062;-55
2022/09/15 02:39:13;;;;;;;57.83;30.05;;;16.80;72.80;;;;;;4976025;28;20077;-51
2022/09/15 02:41:40;;;;;;;64.05;32.38;;;16.80;73.00;;;;;;4971840;28;20055;-54
2022/09/15 02:44:08;;;;;;;73.32;35.40;;;16.80;73.10;;;;;;4979750;28;20046;-50
2022/09/15 02:46:36;;;;;;;75.22;34.67;;;16.80;73.20;;;;;;4975859;28;20054;-53
2022/09/15 02:49:10;;;;;;;75.97;36.88;;;16.70;73.30;;;;;;4980006;28;20050;-48
2022/09/15 02:51:38;;;;;;;80.50;37.72;;;16.70;73.40;;;;;;4972851;28;20054;-51
2022/09/15 02:54:05;;;;;;;85.28;41.17;;;16.70;73.50;;;;;;4978542;28;20055;-51
2022/09/15 02:56:32;;;;;;;85.90;39.67;;;16.60;73.60;;;;;;4981351;28;20057;-54
2022/09/15 02:58:59;;;;;;;76.32;39.92;;;16.60;73.70;;;;;;4979717;28;20410;-54
2022/09/15 03:01:31;;;;;;;79.10;39.83;;;16.60;73.90;;;;;;4974097;28;20065;-53
2022/09/15 03:03:58;;;;;;;89.60;39.72;;;16.60;73.90;;;;;;4978100;28;20426;-54
2022/09/15 03:06:33;;;;;;;79.32;39.35;;;16.60;73.80;;;;;;4976034;28;20058;-51
2022/09/15 03:09:03;;;;;;;81.05;38.47;;;16.60;73.80;;;;;;4977163;28;20050;-53
2022/09/15 03:11:31;;;;;;;83.55;39.85;;;16.70;73.80;;;;;;4971882;28;20070;-53
2022/09/15 03:13:59;;;;;;;81.10;39.00;;;16.60;73.70;;;;;;4980922;28;20054;-54
2022/09/15 03:16:27;;;;;;;81.47;39.95;;;16.60;73.70;;;;;;4979391;28;20058;-51
2022/09/15 03:18:57;;;;;;;77.50;38.03;;;16.70;73.70;;;;;;4976932;28;20057;-51
2022/09/15 03:21:25;;;;;;;75.03;39.08;;;16.70;73.70;;;;;;4967754;28;20053;-54
2022/09/15 03:23:53;;;;;;;67.60;35.47;;;16.70;73.60;;;;;;4971273;28;20053;-52
2022/09/15 03:26:20;;;;;;;75.65;37.70;;;16.70;73.60;;;;;;4970162;28;20057;-54
2022/09/15 03:28:47;;;;;;;67.57;37.60;;;16.70;73.50;;;;;;4972203;28;20069;-51
2022/09/15 03:31:14;;;;;;;72.97;36.47;;;16.80;73.60;;;;;;4967600;28;20059;-52
2022/09/15 03:33:42;;;;;;;75.25;38.10;;;16.80;73.50;;;;;;4968188;28;20066;-53
2022/09/15 03:36:09;;;;;;;68.65;35.17;;;16.80;73.50;;;;;;4975031;28;20065;-53
2022/09/15 03:38:37;;;;;;;87.18;38.35;;;16.80;73.50;;;;;;4969442;28;20055;-53
2022/09/15 03:41:07;;;;;;;74.57;39.13;;;16.90;73.60;;;;;;4974765;28;20070;-52
2022/09/15 03:43:35;;;;;;;75.45;37.85;;;16.90;73.30;;;;;;4979407;28;20047;-55
2022/09/15 03:46:03;;;;;;;66.70;38.58;;;16.90;73.20;;;;;;4975384;28;20062;-51
2022/09/15 03:48:33;;;;;;;75.38;43.55;;;16.90;73.10;;;;;;4980133;28;20054;-52
2022/09/15 03:51:01;;;;;;;73.05;43.42;;;16.90;73.10;;;;;;4977414;28;20061;-55
2022/09/15 03:53:30;;;;;;;73.00;42.25;;;16.90;73.20;;;;;;4974691;28;20061;-55
2022/09/15 03:56:09;;;;;;;77.45;42.97;;;16.90;73.20;;;;;;4982594;28;20070;-54
2022/09/15 03:58:36;;;;;;;71.68;39.67;;;16.90;72.90;;;;;;4984363;28;20065;-53
2022/09/15 04:01:04;;;;;;;66.90;37.25;;;16.90;72.90;;;;;;4976759;28;20054;-50
2022/09/15 04:03:31;;;;;;;73.53;39.90;;;16.90;73.10;;;;;;4982322;28;20054;-53
2022/09/15 04:05:58;;;;;;;78.97;41.00;;;16.80;73.20;;;;;;4980453;28;20430;-52
2022/09/15 04:08:25;;;;;;;75.63;41.85;;;16.80;73.20;;;;;;4971234;28;20078;-54
2022/09/15 04:10:53;;;;;;;73.40;41.47;;;16.80;73.10;;;;;;4977508;28;20046;-50
2022/09/15 04:13:22;;;;;;;82.72;41.47;;;16.80;73.00;;;;;;4977851;28;20054;-53
2022/09/15 04:15:59;;;;;;;75.13;40.95;;;16.70;72.80;;;;;;4975818;28;20085;-53
2022/09/15 04:18:26;;;;;;;77.65;40.47;;;16.70;72.70;;;;;;4968044;28;20061;-55
2022/09/15 04:20:53;;;;;;;65.72;37.90;;;16.70;72.70;;;;;;4977138;28;20057;-53
2022/09/15 04:23:21;;;;;;;69.53;37.38;;;16.70;72.80;;;;;;4983491;28;20054;-51
2022/09/15 04:25:55;;;;;;;72.55;37.80;;;16.70;72.60;;;;;;4979203;28;20062;-53
2022/09/15 04:28:24;;;;;;;75.45;39.67;;;16.70;72.30;;;;;;4980925;28;20054;-52
2022/09/15 04:30:52;;;;;;;70.15;38.13;;;16.70;72.30;;;;;;4990395;28;20065;-52
2022/09/15 04:33:19;;;;;;;72.78;37.33;;;16.60;72.30;;;;;;4995502;28;20478;-53
2022/09/15 04:35:47;;;;;;;74.50;36.78;;;16.60;72.40;;;;;;4992986;28;20513;-52
2022/09/15 04:38:14;;;;;;;69.18;38.17;;;16.60;72.50;;;;;;4997792;28;20053;-54
2022/09/15 04:40:42;;;;;;;70.32;38.22;;;16.60;72.40;;;;;;4993038;28;20058;-49
2022/09/15 04:43:09;;;;;;;68.05;37.08;;;16.60;72.30;;;;;;4999333;28;20068;-54
2022/09/15 04:45:38;;;;;;;61.03;33.25;;;16.50;72.30;;;;;;5000380;28;20053;-53
2022/09/15 04:48:05;;;;;;;65.85;35.88;;;16.50;72.60;;;;;;4996506;28;20061;-51
2022/09/15 04:50:32;;;;;;;75.43;39.65;;;16.60;72.70;;;;;;4990996;28;20481;-52
2022/09/15 04:53:00;;;;;;;51.50;30.73;;;16.60;72.70;;;;;;4993833;28;20065;-54
2022/09/15 04:55:27;;;;;;;67.38;34.90;;;16.60;72.70;;;;;;5001704;28;20061;-54
2022/09/15 04:57:55;;;;;;;65.55;33.65;;;16.60;72.70;;;;;;4995799;28;20359;-52
2022/09/15 05:00:22;;;;;;;71.20;36.90;;;16.70;72.70;;;;;;4991405;28;20069;-50
2022/09/15 05:02:50;;;;;;;72.60;38.17;;;16.70;72.60;;;;;;4996088;28;20072;-54
2022/09/15 05:05:18;;;;;;;63.50;34.15;;;16.70;72.40;;;;;;4994131;28;20073;-51
2022/09/15 05:07:45;;;;;;;72.57;39.13;;;16.80;72.40;;;;;;4999039;28;20061;-54
2022/09/15 05:10:12;;;;;;;74.72;37.40;;;16.80;72.30;;;;;;4994245;28;20050;-53
2022/09/15 05:12:40;;;;;;;73.63;36.13;;;16.70;72.20;;;;;;4989507;28;20054;-55
2022/09/15 05:15:08;;;;;;;67.82;36.53;;;16.80;72.40;;;;;;5000180;28;20046;-53
2022/09/15 05:17:36;;;;;;;71.47;36.97;;;16.70;72.20;;;;;;4997374;28;20064;-54
2022/09/15 05:20:05;;;;;;;73.30;37.83;;;16.70;72.30;;;;;;4999295;28;20485;-55
2022/09/15 05:22:32;;;;;;;68.85;36.42;;;16.70;72.40;;;;;;4996242;28;20050;-52
2022/09/15 05:24:59;;;;;;;67.03;36.47;;;16.70;72.40;;;;;;4998918;28;20053;-55
2022/09/15 05:27:26;;;;;;;63.03;35.60;;;16.70;72.60;;;;;;4990740;28;20778;-53
2022/09/15 05:29:54;;;;;;;69.65;36.67;;;16.60;72.70;;;;;;4992137;28;20054;-52
2022/09/15 05:32:21;;;;;;;58.45;34.08;;;16.70;72.90;;;;;;4990624;28;20064;-53
2022/09/15 05:34:49;;;;;;;65.38;34.95;;;16.70;73.00;;;;;;4989044;28;20053;-50
2022/09/15 05:37:17;;;;;;;56.08;33.67;;;16.70;73.00;;;;;;4995295;28;20065;-52
2022/09/15 05:39:45;;;;;;;73.18;35.38;;;16.70;72.70;;;;;;4995365;28;20064;-48
2022/09/15 05:42:12;;;;;;;59.03;33.60;;;16.70;72.70;;;;;;4981825;28;20058;-48
2022/09/15 05:44:39;;;;;;;53.70;32.45;;;16.70;72.70;;;;;;4993050;28;20058;-52
2022/09/15 05:47:06;;;;;;;59.42;33.80;;;16.70;73.00;;;;;;4988609;28;20054;-54
2022/09/15 05:49:34;;;;;;;67.93;34.75;;;16.70;72.70;;;;;;5001379;28;20394;-54
2022/09/15 05:52:04;;;;;;;63.13;34.75;;;16.70;72.80;;;;;;5003486;28;20060;-53
2022/09/15 05:54:32;;;;;;;59.20;34.58;;;16.70;72.70;;;;;;5001403;28;20042;-54
2022/09/15 05:57:00;;;;;;;62.13;34.20;;;16.70;72.70;;;;;;4986902;28;20451;-54
2022/09/15 05:59:27;;;;;;;66.35;36.90;;;16.70;72.70;;;;;;4970333;28;20050;-53
2022/09/15 06:01:54;;;;;;;57.63;34.05;;;16.80;72.80;;;;;;4984938;28;20061;-54
2022/09/15 06:04:22;;;;;;;60.85;34.20;;;16.70;72.70;;;;;;4979802;28;20059;-54
2022/09/15 06:06:50;;;;;;;72.43;36.40;;;16.70;73.00;;;;;;4979834;28;20058;-53
2022/09/15 06:09:17;;;;;;;76.55;37.78;;;16.80;73.20;;;;;;4983369;28;20052;-53
2022/09/15 06:11:46;;;;;;;71.05;36.30;;;16.80;73.10;;;;;;4978904;28;20065;-53
2022/09/15 06:14:13;;;;;;;71.50;36.78;;;16.80;72.80;;;;;;4984748;28;20049;-54
2022/09/15 06:16:40;;;;;;;73.30;37.63;;;16.90;73.00;;;;;;4979308;28;20053;-51
2022/09/15 06:19:07;;;;;;;60.60;34.17;;;16.90;72.90;;;;;;4981167;28;20479;-53
2022/09/15 06:21:35;;;;;;;66.60;34.60;;;16.90;72.90;;;;;;4984093;28;20054;-55
2022/09/15 06:24:05;;;;;;;57.42;33.05;;;16.90;72.90;;;;;;4979353;28;20082;-54
2022/09/15 06:26:34;;;;;;;65.82;36.28;;;16.90;72.90;;;;;;4986264;28;20054;-55
2022/09/15 06:29:03;;;;;;;58.03;31.75;;;16.90;72.90;;;;;;4991734;28;20058;-54
2022/09/15 06:31:32;;;;;;;58.85;33.60;;;16.90;72.90;;;;;;4992196;28;20057;-51
2022/09/15 06:34:00;;;;;;;48.00;28.75;;;17.00;73.10;;;;;;4995208;28;20510;-51
2022/09/15 06:36:29;;;;;;;54.35;31.73;;;17.00;73.20;;;;;;4993098;28;20069;-54
2022/09/15 06:38:57;;;;;;;54.42;30.95;;;17.10;73.20;;;;;;4995207;28;20054;-49
2022/09/15 06:41:25;;;;;;;51.75;30.85;;;17.10;73.00;;;;;;4991790;28;20049;-54
2022/09/15 06:43:52;;;;;;;55.70;32.60;;;17.20;73.10;;;;;;4991919;28;20081;-54
2022/09/15 06:46:22;;;;;;;56.83;31.95;;;17.20;72.90;;;;;;4989868;28;20054;-53
2022/09/15 06:48:50;;;;;;;57.88;31.75;;;17.30;72.70;;;;;;4996906;28;20417;-54
2022/09/15 06:51:19;;;;;;;52.72;30.52;;;17.30;72.50;;;;;;4996791;28;20065;-55
2022/09/15 06:53:46;;;;;;;50.53;30.13;;;17.30;72.30;;;;;;5000181;28;20058;-53
2022/09/15 06:56:15;;;;;;;57.53;33.33;;;17.40;72.20;;;;;;5000010;28;20574;-54
2022/09/15 06:58:43;;;;;;;58.30;32.63;;;17.40;71.90;;;;;;4997600;28;20056;-54
2022/09/15 07:01:12;;;;;;;48.78;30.23;;;17.40;71.90;;;;;;4997046;28;20058;-54
2022/09/15 07:03:43;;;;;;;48.90;28.92;;;17.40;71.80;;;;;;4999448;28;20509;-52
2022/09/15 07:06:11;;;;;;;48.80;28.10;;;17.50;71.90;;;;;;4995205;28;20061;-52
2022/09/15 07:08:39;;;;;;;41.33;25.88;;;17.40;71.70;;;;;;4995238;28;20065;-55
2022/09/15 07:11:06;;;;;;;45.22;26.27;;;17.50;71.80;;;;;;4992241;28;20053;-53
2022/09/15 07:13:34;;;;;;;55.05;29.17;;;17.60;71.80;;;;;;5001963;28;20069;-54
2022/09/15 07:16:06;;;;;;;52.13;28.13;;;17.50;71.30;;;;;;5002906;28;20519;-54
2022/09/15 07:18:34;;;;;;;41.58;22.80;;;17.50;70.80;;;;;;4996335;28;20053;-53
2022/09/15 07:21:05;;;;;;;37.42;23.80;;;17.60;71.00;;;;;;5000007;28;20092;-54
2022/09/15 07:23:33;;;;;;;40.60;23.48;;;17.60;70.80;;;;;;5002258;28;20061;-52
2022/09/15 07:26:08;;;;;;;37.60;23.08;;;17.60;70.50;;;;;;5003265;28;20050;-52
2022/09/15 07:28:35;;;;;;;37.15;21.13;;;17.60;70.50;;;;;;4998502;28;20060;-55
2022/09/15 07:31:04;;;;;;;37.15;20.70;;;17.50;69.90;;;;;;5000842;28;20429;-50
2022/09/15 07:33:31;;;;;;;38.08;23.02;;;17.50;70.00;;;;;;5004993;28;20062;-54
2022/09/15 07:36:00;;;;;;;32.78;20.83;;;17.50;70.00;;;;;;5004208;28;20054;-53
2022/09/15 07:38:29;;;;;;;46.63;24.05;;;17.50;70.10;;;;;;4998677;28;20387;-55
2022/09/15 07:41:02;;;;;;;42.00;25.42;;;17.50;70.00;;;;;;4994997;28;20061;-54
2022/09/15 07:43:30;;;;;;;46.15;26.35;;;17.50;70.00;;;;;;5001985;28;20077;-55
2022/09/15 07:45:57;;;;;;;45.72;28.88;;;17.50;69.70;;;;;;5000962;28;20060;-55
2022/09/15 07:48:25;;;;;;;45.00;26.83;;;17.40;69.70;;;;;;5001846;28;20053;-52
2022/09/15 07:50:52;;;;;;;50.47;31.23;;;17.40;69.90;;;;;;4990118;28;20061;-54
2022/09/15 07:53:19;;;;;;;48.50;30.02;;;17.30;69.90;;;;;;4999362;28;20050;-51
2022/09/15 07:55:52;;;;;;;59.50;33.67;;;17.30;69.90;;;;;;5002759;28;20493;-53
2022/09/15 07:58:19;;;;;;;57.47;33.40;;;17.20;69.90;;;;;;5002081;28;20060;-53
2022/09/15 08:00:47;;;;;;;52.42;32.13;;;17.20;70.00;;;;;;4996294;28;20057;-54
2022/09/15 08:03:14;;;;;;;53.92;30.55;;;17.20;70.30;;;;;;5000869;28;20057;-52
2022/09/15 08:05:42;;;;;;;52.08;33.13;;;17.20;70.60;;;;;;4999180;28;20053;-55
2022/09/15 08:08:09;;;;;;;58.00;32.50;;;17.20;70.60;;;;;;4999395;28;20057;-56
2022/09/15 08:10:39;;;;;;;52.63;31.10;;;17.20;71.00;;;;;;4989471;28;20062;-54
2022/09/15 08:13:08;;;;;;;50.50;31.35;;;17.20;71.30;;;;;;4991189;28;20076;-55
2022/09/15 08:15:36;;;;;;;47.60;29.20;;;17.20;71.30;;;;;;4992778;28;20046;-54
2022/09/15 08:18:04;;;;;;;50.38;30.52;;;17.30;71.70;;;;;;4994834;28;20053;-55
2022/09/15 08:20:32;;;;;;;45.30;28.52;;;17.30;71.50;;;;;;4996163;28;20053;-55
2022/09/15 08:22:59;;;;;;;51.30;29.80;;;17.40;71.80;;;;;;4999537;28;20064;-55
2022/09/15 08:25:26;;;;;;;46.88;29.42;;;17.40;71.80;;;;;;4992338;28;20053;-52
2022/09/15 08:27:55;;;;;;;54.55;32.28;;;17.40;71.50;;;;;;5002912;28;20062;-55
2022/09/15 08:30:23;;;;;;;59.80;32.05;;;17.50;71.40;;;;;;4995932;28;20081;-55
2022/09/15 08:32:51;;;;;;;47.65;29.45;;;17.50;71.20;;;;;;5002958;28;20478;-56
2022/09/15 08:35:19;;;;;;;49.92;30.60;;;17.50;71.30;;;;;;5005434;28;20058;-53
2022/09/15 08:37:46;;;;;;;46.83;28.30;;;17.60;71.30;;;;;;5002778;28;20050;-56
2022/09/15 08:40:17;;;;;;;57.38;31.10;;;17.60;71.30;;;;;;5000605;28;20053;-54
2022/09/15 08:42:46;;;;;;;39.83;26.38;;;17.60;71.30;;;;;;5004113;28;20532;-56
2022/09/15 08:45:21;;;;;;;44.58;27.95;;;17.70;70.90;;;;;;4996712;28;20052;-55
2022/09/15 08:47:54;;;;;;;47.92;29.83;;;17.70;70.70;;;;;;5002555;28;20053;-54
2022/09/15 08:50:27;;;;;;;48.55;29.38;;;17.80;69.70;;;;;;4999897;28;20064;-55
2022/09/15 08:53:02;;;;;;;50.03;28.45;;;17.70;69.10;;;;;;5000151;28;20076;-55
2022/09/15 08:55:38;;;;;;;53.28;28.88;;;17.70;68.80;;;;;;5003259;28;20057;-53
2022/09/15 08:58:06;;;;;;;47.47;26.80;;;17.70;69.00;;;;;;5003390;28;20053;-55
2022/09/15 09:00:33;;;;;;;56.83;30.30;;;17.80;69.90;;;;;;4996782;28;20080;-55
2022/09/15 09:03:26;;;;;;;43.20;26.38;;;17.70;70.20;;;;;;5000685;28;20065;-55
2022/09/15 09:06:02;;;;;;;51.28;30.75;;;17.80;70.00;;;;;;5004648;28;20061;-55
2022/09/15 09:09:02;;;;;;;34.60;23.10;;;17.80;69.90;;;;;;5004132;28;20057;-54
2022/09/15 09:11:42;;;;;;;49.97;26.00;;;17.90;69.80;;;;;;4998880;28;20513;-54
2022/09/15 09:14:23;;;;;;;44.45;26.02;;;17.90;69.10;;;;;;5001466;28;20060;-53
2022/09/15 09:17:03;;;;;;;35.47;23.95;;;17.90;69.30;;;;;;5001224;28;20053;-57
2022/09/15 09:19:48;;;;;;;41.58;26.58;;;18.00;69.60;;;;;;5001368;28;20813;-56
2022/09/15 09:22:20;;;;;;;41.28;26.92;;;18.10;69.30;;;;;;4998604;28;20060;-55
2022/09/15 09:24:50;;;;;;;41.53;29.75;;;18.20;69.50;;;;;;4993832;28;20060;-54
2022/09/15 09:27:20;;;;;;;46.72;28.58;;;18.20;68.30;;;;;;4997629;28;20072;-54
2022/09/15 09:29:49;;;;;;;47.33;26.67;;;18.20;68.60;;;;;;4999977;28;20050;-54
2022/09/15 09:32:19;;;;;;;38.60;24.40;;;18.20;68.90;;;;;;5000329;28;20061;-54
2022/09/15 09:34:55;;;;;;;44.63;26.55;;;18.30;68.80;;;;;;4996416;28;20506;-54
2022/09/15 09:37:23;;;;;;;38.10;23.83;;;18.30;69.40;;;;;;5002496;28;20076;-53
2022/09/15 09:39:50;;;;;;;38.53;25.90;;;18.40;69.40;;;;;;5000082;28;20077;-53
2022/09/15 09:42:19;;;;;;;38.25;24.63;;;18.40;69.10;;;;;;5001127;28;20058;-53
2022/09/15 09:44:47;;;;;;;35.22;24.17;;;18.40;68.70;;;;;;4999877;28;20065;-52
2022/09/15 09:47:14;;;;;;;43.33;24.92;;;18.40;68.40;;;;;;4999913;28;20504;-55
2022/09/15 09:49:46;;;;;;;37.55;23.95;;;18.50;68.10;;;;;;5000715;28;20054;-55
2022/09/15 09:52:32;;;;;;;33.40;23.38;;;18.50;67.50;;;;;;5000138;28;20409;-56
2022/09/15 09:55:01;;;;;;;36.38;23.55;;;18.50;66.40;;;;;;5001000;28;20057;-52
2022/09/15 09:57:31;;;;;;;42.83;26.13;;;18.50;66.60;;;;;;5001963;28;20050;-54
2022/09/15 09:59:58;;;;;;;39.25;25.17;;;18.50;66.90;;;;;;4999322;28;20057;-54
2022/09/15 10:02:26;;;;;;;36.85;22.92;;;18.50;66.50;;;;;;5001329;28;21476;-56
2022/09/15 10:04:55;;;;;;;37.40;24.17;;;18.50;66.80;;;;;;4997839;28;20065;-55
2022/09/15 10:07:26;;;;;;;39.13;24.20;;;18.50;67.40;;;;;;4998966;28;20056;-53
2022/09/15 10:09:56;;;;;;;39.08;25.30;;;18.50;66.70;;;;;;4995023;28;20065;-55
2022/09/15 10:12:28;;;;;;;40.47;24.60;;;18.50;66.60;;;;;;4995785;28;20050;-55
2022/09/15 10:14:58;;;;;;;35.78;25.98;;;18.50;66.10;;;;;;4991316;28;20057;-52
2022/09/15 10:17:37;;;;;;;33.58;22.77;;;18.50;66.50;;;;;;4996790;28;20054;-53
2022/09/15 10:20:19;;;;;;;36.08;22.88;;;18.50;67.20;;;;;;4992333;28;20057;-56
2022/09/15 10:22:48;;;;;;;28.92;18.13;;;18.50;64.20;;;;;;4997979;28;20395;-54
2022/09/15 10:25:33;;;;;;;27.88;18.95;;;18.40;62.70;;;;;;5000607;28;20053;-55
2022/09/15 10:28:05;;;;;;;26.02;17.95;;;18.40;62.90;;;;;;5001676;28;20065;-56
2022/09/15 10:30:33;;;;;;;26.58;18.40;;;18.40;62.40;;;;;;4998827;28;20485;-52
2022/09/15 10:33:18;;;;;;;27.08;17.85;;;18.40;62.60;;;;;;5001280;28;20543;-54
2022/09/15 10:35:46;;;;;;;20.52;14.02;;;18.40;61.80;;;;;;4999490;28;20528;-55
2022/09/15 10:38:21;;;;;;;19.38;14.77;;;18.30;62.20;;;;;;5001163;28;20430;-54
2022/09/15 10:40:55;;;;;;;18.65;14.40;;;18.30;61.50;;;;;;4997973;28;20053;-54
2022/09/15 10:43:36;;;;;;;22.58;15.95;;;18.40;63.10;;;;;;4998620;28;20078;-56
2022/09/15 10:46:10;;;;;;;28.55;16.52;;;18.40;62.00;;;;;;4999963;28;20054;-53
2022/09/15 10:48:56;;;;;;;22.10;15.98;;;18.40;62.10;;;;;;5000336;28;20500;-54
2022/09/15 10:51:34;;;;;;;28.48;17.77;;;18.50;62.90;;;;;;5001061;28;20053;-56
2022/09/15 10:54:31;;;;;;;21.65;15.82;;;18.50;61.80;;;;;;5001804;28;20054;-56
2022/09/15 10:57:09;;;;;;;27.13;17.20;;;18.60;61.80;;;;;;4999935;28;20049;-56
2022/09/15 10:59:46;;;;;;;24.98;15.93;;;18.60;62.00;;;;;;5003771;28;20390;-52
2022/09/15 11:02:44;;;;;;;25.05;15.70;;;18.60;60.90;;;;;;5002262;28;20057;-53
2022/09/15 11:05:25;;;;;;;18.55;12.82;;;18.60;60.90;;;;;;5003930;28;20061;-56
2022/09/15 11:08:10;;;;;;;21.85;14.98;;;18.70;62.10;;;;;;5004173;28;20069;-53
2022/09/15 11:10:47;;;;;;;15.63;10.35;;;18.80;60.60;;;;;;5000326;28;20504;-53
2022/09/15 11:13:24;;;;;;;15.52;10.07;;;18.90;59.40;;;;;;5004000;28;20057;-53
2022/09/15 11:16:03;;;;;;;14.85;9.68;;;18.90;59.40;;;;;;5002951;28;20054;-57
2022/09/15 11:18:55;;;;;;;18.60;11.68;;;18.90;59.10;;;;;;5005421;28;20421;-55
2022/09/15 11:21:29;;;;;;;16.60;12.20;;;19.00;59.40;;;;;;5002911;28;20493;-52
2022/09/15 11:24:29;;;;;;;11.10;9.15;;;19.00;58.30;;;;;;5001345;28;20054;-53
2022/09/15 11:27:03;;;;;;;15.80;8.45;;;19.10;59.00;;;;;;4994795;28;20050;-52
2022/09/15 11:29:36;;;;;;;19.00;7.40;;;19.10;58.70;;;;;;5001626;28;20074;-55
2022/09/15 11:32:09;;;;;;;6.93;4.95;;;19.10;59.00;;;;;;4998216;28;20062;-53
2022/09/15 11:34:42;;;;;;;7.53;5.50;;;19.20;57.80;;;;;;5003015;28;20050;-57
2022/09/15 11:37:14;;;;;;;10.38;5.82;;;19.20;57.40;;;;;;5005001;28;20056;-53
2022/09/15 11:39:47;;;;;;;9.55;5.22;;;19.20;58.40;;;;;;5004326;28;20065;-53
2022/09/15 11:42:20;;;;;;;8.55;5.22;;;19.30;58.20;;;;;;5002081;28;20079;-53
2022/09/15 11:44:48;;;;;;;9.25;5.18;;;19.30;58.00;;;;;;5005274;28;20054;-51
2022/09/15 11:47:27;;;;;;;7.15;4.35;;;19.30;58.50;;;;;;5006329;28;20053;-56
2022/09/15 11:49:57;;;;;;;7.45;4.22;;;19.40;58.10;;;;;;5003123;28;20734;-55
2022/09/15 11:52:44;;;;;;;10.05;5.40;;;19.40;58.40;;;;;;5003509;28;20066;-53
2022/09/15 11:55:23;;;;;;;7.75;3.95;;;19.50;58.20;;;;;;5003080;28;20058;-55
2022/09/15 11:57:59;;;;;;;9.68;4.47;;;19.60;57.90;;;;;;5004297;28;20053;-56
2022/09/15 12:00:26;;;;;;;10.63;4.75;;;19.60;56.90;;;;;;5000587;28;20057;-57
2022/09/15 12:03:06;;;;;;;9.95;4.85;;;19.60;57.30;;;;;;5004755;28;20490;-55
2022/09/15 12:05:39;;;;;;;12.68;3.30;;;19.60;57.60;;;;;;5002065;28;20068;-56
2022/09/15 12:08:14;;;;;;;13.65;4.88;;;19.60;57.30;;;;;;5005263;28;21116;-55
2022/09/15 12:10:46;;;;;;;9.07;4.07;;;19.60;56.80;;;;;;4999784;28;20061;-55
2022/09/15 12:13:17;;;;;;;8.32;3.83;;;19.60;57.00;;;;;;5004334;28;20053;-48
2022/09/15 12:15:45;;;;;;;10.02;4.15;;;19.60;57.70;;;;;;5003482;28;20103;-55
2022/09/15 12:18:24;;;;;;;6.50;3.97;;;19.70;57.80;;;;;;5004183;28;20398;-56
2022/09/15 12:20:57;;;;;;;9.82;4.43;;;19.80;58.00;;;;;;4999724;28;20054;-55
2022/09/15 12:23:32;;;;;;;10.68;4.10;;;19.80;57.70;;;;;;5002596;28;20057;-59
2022/09/15 12:26:13;;;;;;;6.55;3.70;;;19.80;56.30;;;;;;5003069;28;20061;-54
2022/09/15 12:28:53;;;;;;;8.98;3.78;;;19.80;55.90;;;;;;5002483;28;20054;-57
2022/09/15 12:31:34;;;;;;;9.30;4.50;;;19.80;56.10;;;;;;4997761;28;20057;-51
2022/09/15 12:34:03;;;;;;;7.57;4.40;;;19.90;56.20;;;;;;4999332;28;20054;-54
2022/09/15 12:36:40;;;;;;;7.80;4.22;;;19.90;56.10;;;;;;5003738;28;20050;-52
2022/09/15 12:39:26;;;;;;;9.82;4.10;;;19.90;56.10;;;;;;5003583;28;20053;-55
2022/09/15 12:41:56;;;;;;;9.73;3.78;;;19.90;55.50;;;;;;4986836;28;20129;-54
2022/09/15 12:44:31;;;;;;;10.43;3.33;;;19.90;55.20;;;;;;4996697;28;20390;-54
2022/09/15 12:47:00;;;;;;;8.10;2.97;;;19.90;55.10;;;;;;4995766;28;20413;-52
2022/09/15 12:49:32;;;;;;;8.85;3.17;;;19.80;54.60;;;;;;5000055;28;20057;-53
2022/09/15 12:52:04;;;;;;;7.13;2.88;;;19.90;55.10;;;;;;4999631;28;20672;-57